Time;durP1;ratioP1;P1;durP2;ratioP2;P2;SDS_P1;SDS_P2;PMS_P1;PMS_P2;Temp;Humidity;BMP_temperature;BMP_pressure;BME280_temperature;BME280_humidity;BME280_pressure;Samples;Min_cycle;Max_cycle;Signal;HPM_P1;HPM_P2
2023/05/11 17:38:32;;;;;;;12.98;8.30;;;15.50;99.90;;;;;;5112675;27;20168;-64
2023/05/11 17:41:03;;;;;;;12.95;7.40;;;15.50;99.90;;;;;;5095919;28;20388;-65
2023/05/11 17:43:29;;;;;;;12.98;7.53;;;15.50;99.90;;;;;;5086981;28;20017;-64
2023/05/11 17:45:55;;;;;;;12.05;7.97;;;15.60;99.90;;;;;;5094879;28;20542;-64
2023/05/11 17:48:22;;;;;;;13.30;8.13;;;15.70;99.90;;;;;;5104567;28;20020;-64
2023/05/11 17:50:48;;;;;;;13.40;7.22;;;15.70;99.90;;;;;;5091765;28;20074;-64
2023/05/11 17:53:14;;;;;;;15.07;8.57;;;15.70;99.90;;;;;;5100911;28;20015;-64
2023/05/11 17:55:40;;;;;;;13.85;7.93;;;15.80;99.90;;;;;;5090138;28;20792;-64
2023/05/11 17:58:06;;;;;;;11.70;7.30;;;15.90;99.90;;;;;;5085922;28;20032;-64
2023/05/11 18:00:32;;;;;;;11.70;7.63;;;15.90;99.90;;;;;;5087286;28;20528;-64
2023/05/11 18:02:58;;;;;;;12.77;7.28;;;15.90;99.90;;;;;;5087239;28;20021;-64
2023/05/11 18:05:24;;;;;;;13.23;6.95;;;15.90;99.90;;;;;;5087436;28;20095;-65
2023/05/11 18:07:51;;;;;;;11.98;7.72;;;15.90;99.90;;;;;;5086929;28;20416;-64
2023/05/11 18:10:17;;;;;;;11.02;6.43;;;15.90;99.90;;;;;;5086777;28;20020;-63
2023/05/11 18:12:42;;;;;;;10.80;6.85;;;15.90;99.90;;;;;;5087457;28;20032;-64
2023/05/11 18:15:09;;;;;;;12.45;8.18;;;15.90;99.90;;;;;;5100374;28;20024;-63
2023/05/11 18:17:35;;;;;;;12.10;7.53;;;15.90;99.90;;;;;;5108162;28;20205;-64
2023/05/11 18:20:01;;;;;;;11.15;7.20;;;15.90;99.90;;;;;;5108272;28;20408;-64
2023/05/11 18:22:28;;;;;;;10.38;7.32;;;15.90;99.90;;;;;;5107730;28;20081;-63
2023/05/11 18:24:54;;;;;;;13.32;6.93;;;15.80;99.90;;;;;;5108524;28;20016;-64
2023/05/11 18:27:20;;;;;;;11.10;7.15;;;15.80;99.90;;;;;;5107019;28;20533;-65
2023/05/11 18:29:45;;;;;;;10.73;6.35;;;15.80;99.90;;;;;;5107539;28;20023;-63
2023/05/11 18:32:11;;;;;;;11.57;6.45;;;15.80;99.90;;;;;;5106420;28;20476;-64
2023/05/11 18:34:40;;;;;;;9.25;6.35;;;15.80;99.90;;;;;;5108330;28;20031;-63
2023/05/11 18:37:07;;;;;;;12.00;7.28;;;15.70;99.90;;;;;;5106991;28;20134;-64
2023/05/11 18:39:32;;;;;;;11.30;6.60;;;15.70;99.90;;;;;;5106679;28;20053;-65
2023/05/11 18:42:01;;;;;;;10.63;6.32;;;15.60;99.90;;;;;;5106659;28;20012;-64
2023/05/11 18:44:27;;;;;;;11.38;6.35;;;15.60;99.90;;;;;;5105099;28;20028;-64
2023/05/11 18:46:52;;;;;;;10.82;6.53;;;15.60;99.90;;;;;;5107882;28;20026;-64
2023/05/11 18:49:19;;;;;;;10.55;6.45;;;15.60;99.90;;;;;;5096273;28;20036;-63
2023/05/11 18:51:45;;;;;;;11.90;6.75;;;15.50;99.90;;;;;;5092881;28;20526;-64
2023/05/11 18:54:11;;;;;;;12.48;7.00;;;15.50;99.90;;;;;;5072518;28;20496;-66
2023/05/11 18:56:37;;;;;;;12.25;6.85;;;15.50;99.90;;;;;;5073401;28;20025;-66
2023/05/11 18:59:02;;;;;;;11.48;7.10;;;15.40;99.90;;;;;;5082900;28;20040;-64
2023/05/11 19:01:28;;;;;;;9.52;6.05;;;15.40;99.90;;;;;;5093870;28;20459;-64
2023/05/11 19:03:54;;;;;;;13.13;7.43;;;15.40;99.90;;;;;;5093808;28;20024;-65
2023/05/11 19:06:19;;;;;;;12.52;6.50;;;15.30;99.90;;;;;;5092716;28;20026;-64
2023/05/11 19:08:45;;;;;;;10.82;6.25;;;15.30;99.90;;;;;;5094150;28;20460;-65
2023/05/11 19:11:12;;;;;;;12.10;6.57;;;15.30;99.90;;;;;;5093135;28;20035;-64
2023/05/11 19:13:38;;;;;;;14.25;7.85;;;15.30;99.90;;;;;;5092022;28;20062;-65
2023/05/11 19:16:04;;;;;;;13.00;7.18;;;15.20;99.90;;;;;;5092575;28;20047;-65
2023/05/11 19:18:31;;;;;;;12.18;7.13;;;15.20;99.90;;;;;;5092572;28;20028;-65
2023/05/11 19:20:56;;;;;;;12.23;7.18;;;15.20;99.90;;;;;;5092849;28;20016;-65
2023/05/11 19:23:22;;;;;;;12.30;6.75;;;15.10;99.90;;;;;;5093660;28;20093;-66
2023/05/11 19:25:47;;;;;;;13.73;8.18;;;15.10;99.90;;;;;;5092187;28;20154;-66
2023/05/11 19:28:13;;;;;;;13.85;7.53;;;15.00;99.90;;;;;;5094331;28;20008;-64
2023/05/11 19:30:39;;;;;;;9.45;6.80;;;15.00;99.90;;;;;;5091684;28;20059;-65
2023/05/11 19:33:04;;;;;;;13.23;6.63;;;15.00;99.90;;;;;;5090932;28;20392;-65
2023/05/11 19:35:30;;;;;;;14.15;7.75;;;14.90;99.90;;;;;;5091744;28;20089;-65
2023/05/11 19:37:56;;;;;;;12.00;6.50;;;14.90;99.90;;;;;;5091462;28;20048;-65
2023/05/11 19:40:23;;;;;;;11.90;6.22;;;14.90;99.90;;;;;;5091426;28;20028;-66
2023/05/11 19:42:50;;;;;;;11.82;6.18;;;14.90;99.90;;;;;;5091590;28;20383;-65
2023/05/11 19:45:16;;;;;;;13.05;7.10;;;14.90;99.90;;;;;;5091697;28;20099;-66
